Time;durP1;ratioP1;P1;durP2;ratioP2;P2;SDS_P1;SDS_P2;PMS_P1;PMS_P2;Temp;Humidity;BMP_temperature;BMP_pressure;BME280_temperature;BME280_humidity;BME280_pressure;Samples;Min_cycle;Max_cycle;Signal;HPM_P1;HPM_P2
2023/05/25 00:01:08;;;;;;;18.35;8.23;;;;;;;8.33;100.00;102549.63;5072231;28;20108;-73
2023/05/25 00:03:34;;;;;;;16.33;8.40;;;;;;;8.40;100.00;102561.47;5072512;28;20021;-72
2023/05/25 00:06:00;;;;;;;15.85;7.50;;;;;;;8.33;100.00;102547.88;5072531;28;20028;-72
2023/05/25 00:08:26;;;;;;;17.83;7.82;;;;;;;8.16;100.00;102523.47;5072421;28;20545;-74
2023/05/25 00:10:51;;;;;;;16.13;7.85;;;;;;;8.41;100.00;102562.31;5072254;28;20032;-73
2023/05/25 00:13:16;;;;;;;13.15;7.20;;;;;;;8.34;100.00;102571.88;5072428;28;20021;-83
2023/05/25 00:15:42;;;;;;;13.70;6.97;;;;;;;8.24;100.00;102548.13;5072111;28;20039;-73
2023/05/25 00:18:07;;;;;;;17.85;6.78;;;;;;;8.39;100.00;102566.66;5054343;28;20106;-72
2023/05/25 00:20:33;;;;;;;12.57;6.47;;;;;;;8.41;100.00;102563.16;5072497;28;20020;-76
2023/05/25 00:23:01;;;;;;;14.25;6.85;;;;;;;8.42;100.00;102557.13;5054199;28;20372;-72
2023/05/25 00:25:26;;;;;;;13.48;6.45;;;;;;;8.21;100.00;102544.78;5072283;28;20028;-73
2023/05/25 00:27:51;;;;;;;13.98;6.50;;;;;;;8.26;100.00;102560.97;5073523;28;20029;-73
2023/05/25 00:30:17;;;;;;;15.75;7.03;;;;;;;8.22;100.00;102562.75;5076088;28;20028;-84
2023/05/25 00:32:42;;;;;;;14.70;6.13;;;;;;;8.25;100.00;102572.97;5075785;28;20027;-74
2023/05/25 00:35:08;;;;;;;15.82;6.95;;;;;;;8.28;100.00;102574.66;5075862;28;20028;-75
2023/05/25 00:37:33;;;;;;;12.43;6.25;;;;;;;8.18;100.00;102571.47;5075945;28;20020;-73
2023/05/25 00:39:58;;;;;;;16.48;6.65;;;;;;;8.23;100.00;102576.47;5075854;28;20024;-89
2023/05/25 00:42:24;;;;;;;15.75;6.10;;;;;;;8.18;100.00;102576.59;5075537;28;20028;-84
2023/05/25 00:44:49;;;;;;;13.27;6.53;;;;;;;8.13;100.00;102577.59;5075880;28;20073;-89
2023/05/25 00:47:16;;;;;;;17.08;6.18;;;;;;;8.13;100.00;102569.88;5075713;28;20033;-89
2023/05/25 00:49:41;;;;;;;13.43;6.20;;;;;;;8.17;100.00;102572.34;5057728;28;20031;-90
2023/05/25 00:52:10;;;;;;;13.10;6.13;;;;;;;8.12;100.00;102569.03;5075767;28;20024;-90
2023/05/25 00:54:53;;;;;;;10.52;5.90;;;;;;;8.03;100.00;102571.81;5075524;28;20063;-91
2023/05/25 00:57:22;;;;;;;12.18;6.47;;;;;;;7.97;100.00;102569.41;5075598;28;20036;-91
2023/05/25 00:59:50;;;;;;;12.20;5.53;;;;;;;7.92;100.00;102572.09;5075662;28;20099;-89
2023/05/25 01:02:18;;;;;;;12.02;6.30;;;;;;;7.81;100.00;102561.22;5075352;28;20424;-89
2023/05/25 01:04:51;;;;;;;12.50;6.40;;;;;;;7.78;100.00;102569.00;5075386;28;20020;-81
2023/05/25 01:07:21;;;;;;;12.40;5.90;;;;;;;7.83;100.00;102581.75;5075178;28;20116;-90
2023/05/25 01:09:49;;;;;;;15.35;5.93;;;;;;;7.76;100.00;102581.88;5075120;28;20048;-90
2023/05/25 01:12:17;;;;;;;13.48;6.15;;;;;;;7.71;100.00;102580.31;5075429;28;20372;-88
2023/05/25 01:14:42;;;;;;;14.55;6.05;;;;;;;7.49;100.00;102554.25;5075533;28;20028;-89
2023/05/25 01:17:09;;;;;;;12.63;6.03;;;;;;;7.62;100.00;102581.34;5075086;28;20380;-83
2023/05/25 01:19:37;;;;;;;13.32;6.45;;;;;;;7.63;100.00;102582.19;5075194;28;20041;-81
2023/05/25 01:25:31;;;;;;;14.70;6.18;;;;;;;7.56;100.00;102588.34;5033102;28;20400;-90
2023/05/25 01:28:05;;;;;;;13.18;6.60;;;;;;;7.50;100.00;102589.34;5032721;28;20492;-91
2023/05/25 01:30:33;;;;;;;14.65;6.30;;;;;;;7.51;100.00;102601.31;5032982;28;20037;-90
2023/05/25 01:33:00;;;;;;;14.02;6.15;;;;;;;7.38;100.00;102585.31;5032615;28;20030;-91
2023/05/25 01:35:26;;;;;;;12.48;6.53;;;;;;;7.41;100.00;102603.25;5032807;28;20038;-89
2023/05/25 01:37:51;;;;;;;14.50;6.78;;;;;;;7.22;100.00;102565.97;5032770;28;20133;-92
2023/05/25 01:40:17;;;;;;;14.48;6.50;;;;;;;7.33;100.00;102594.00;5031524;28;20128;-90
2023/05/25 01:42:42;;;;;;;12.95;6.55;;;;;;;7.32;100.00;102603.44;5033022;28;20094;-90
2023/05/25 01:45:09;;;;;;;21.27;7.10;;;;;;;7.21;100.00;102583.97;5032752;28;20091;-92
2023/05/25 01:47:51;;;;;;;13.77;6.18;;;;;;;7.23;100.00;102589.94;5032500;28;20041;-91
2023/05/25 01:50:35;;;;;;;15.50;6.47;;;;;;;7.14;100.00;102584.09;5032758;28;20065;-91
2023/05/25 01:53:08;;;;;;;13.50;6.65;;;;;;;7.11;100.00;102580.75;5032496;28;20048;-88
2023/05/25 01:55:38;;;;;;;14.18;6.38;;;;;;;7.13;100.00;102605.53;5044614;28;20036;-90
2023/05/25 01:58:04;;;;;;;14.43;7.50;;;;;;;7.10;100.00;102595.31;5074331;28;20025;-90
2023/05/25 02:00:30;;;;;;;10.68;6.53;;;;;;;7.15;100.00;102605.50;5074430;28;20456;-77
2023/05/25 02:02:56;;;;;;;13.98;7.15;;;;;;;7.11;100.00;102601.31;5074235;28;20032;-71
2023/05/25 02:05:22;;;;;;;13.55;6.57;;;;;;;7.10;100.00;102603.03;5074148;28;20029;-72
2023/05/25 02:07:47;;;;;;;16.80;7.65;;;;;;;6.77;100.00;102554.88;5074194;28;20109;-72
2023/05/25 02:10:13;;;;;;;12.30;6.95;;;;;;;6.81;100.00;102559.94;5074104;28;20157;-78
2023/05/25 02:12:38;;;;;;;12.52;7.40;;;;;;;6.98;100.00;102589.56;5073903;28;20039;-72
2023/05/25 02:15:04;;;;;;;14.63;8.32;;;;;;;6.92;100.00;102584.56;5074314;28;20028;-73
2023/05/25 02:17:30;;;;;;;14.73;8.68;;;;;;;6.73;100.00;102558.41;5073762;28;20106;-71
2023/05/25 02:19:55;;;;;;;13.27;7.65;;;;;;;6.96;100.00;102597.31;5055899;28;20078;-71
2023/05/25 02:22:21;;;;;;;17.48;10.07;;;;;;;6.93;100.00;102602.50;5073913;28;20032;-71
2023/05/25 02:24:47;;;;;;;17.05;10.20;;;;;;;6.90;100.00;102602.59;5073964;28;20456;-72
2023/05/25 02:27:12;;;;;;;18.83;12.95;;;;;;;6.93;100.00;102602.50;5073768;28;20134;-71
2023/05/25 02:29:39;;;;;;;18.23;11.75;;;;;;;6.89;100.00;102598.31;5073622;28;20036;-71
2023/05/25 02:32:05;;;;;;;18.45;13.27;;;;;;;6.81;100.00;102582.22;5073898;28;20031;-72
2023/05/25 02:34:30;;;;;;;21.63;14.63;;;;;;;6.92;100.00;102595.69;5073877;28;20476;-76
2023/05/25 02:36:56;;;;;;;19.10;13.73;;;;;;;6.88;100.00;102596.59;5073676;28;20028;-71
2023/05/25 02:39:21;;;;;;;21.35;15.68;;;;;;;6.85;100.00;102597.53;5073759;28;20035;-72
2023/05/25 02:41:46;;;;;;;19.67;13.75;;;;;;;6.81;100.00;102592.47;5073525;28;20100;-75
2023/05/25 02:44:12;;;;;;;26.55;21.83;;;;;;;6.87;100.00;102589.78;5073302;28;20107;-71
2023/05/25 02:46:37;;;;;;;24.45;17.95;;;;;;;6.88;100.00;102589.78;5073567;28;20476;-73
2023/05/25 02:49:02;;;;;;;26.75;19.95;;;;;;;6.78;100.00;102582.25;5073120;28;20033;-74
2023/05/25 02:51:28;;;;;;;24.35;18.13;;;;;;;6.86;100.00;102594.06;5055320;28;20032;-84
2023/05/25 02:53:53;;;;;;;19.85;17.73;;;;;;;6.84;100.00;102594.97;5073372;28;20028;-85
2023/05/25 02:56:21;;;;;;;25.90;18.50;;;;;;;6.82;100.00;102599.31;5055249;28;20064;-90
2023/05/25 02:58:47;;;;;;;20.88;17.70;;;;;;;6.80;100.00;102606.19;5073202;28;20056;-76
2023/05/25 03:01:17;;;;;;;24.67;17.65;;;;;;;6.69;100.00;102603.84;5073052;28;20059;-87
2023/05/25 03:03:43;;;;;;;22.38;17.23;;;;;;;6.66;100.00;102608.16;5073389;28;20031;-75
2023/05/25 03:06:09;;;;;;;20.83;16.52;;;;;;;6.56;100.00;102590.34;5073947;28;20024;-89
2023/05/25 03:08:34;;;;;;;22.08;15.40;;;;;;;6.68;100.00;102603.84;5073420;28;20107;-90
2023/05/25 03:10:59;;;;;;;22.73;15.55;;;;;;;6.60;100.00;102611.69;5073319;28;20468;-90
2023/05/25 03:13:25;;;;;;;22.45;15.80;;;;;;;6.61;100.00;102619.38;5073123;28;20094;-90
2023/05/25 03:15:51;;;;;;;23.75;15.98;;;;;;;6.54;100.00;102617.78;5072812;28;20040;-88
2023/05/25 03:18:16;;;;;;;19.77;15.32;;;;;;;6.52;100.00;102631.50;5072844;28;20044;-89
2023/05/25 03:20:42;;;;;;;19.55;13.73;;;;;;;6.47;100.00;102629.00;5073199;28;20032;-90
2023/05/25 03:23:08;;;;;;;18.48;12.98;;;;;;;6.53;100.00;102626.34;5072947;28;20320;-87
2023/05/25 03:25:33;;;;;;;21.13;14.00;;;;;;;6.56;100.00;102631.41;5074052;28;20024;-90
2023/05/25 03:27:58;;;;;;;18.90;12.68;;;;;;;6.59;100.00;102640.81;5072904;28;20025;-90
2023/05/25 03:30:24;;;;;;;19.92;12.23;;;;;;;6.53;100.00;102631.47;5072859;28;20021;-90
2023/05/25 03:32:49;;;;;;;18.05;11.45;;;;;;;6.59;100.00;102639.09;5072942;28;20025;-91
2023/05/25 03:35:15;;;;;;;16.83;10.85;;;;;;;6.46;100.00;102626.47;5072929;28;20404;-90
2023/05/25 03:37:40;;;;;;;18.30;11.63;;;;;;;6.55;100.00;102646.84;5072716;28;20380;-90
2023/05/25 03:40:08;;;;;;;15.05;10.43;;;;;;;6.49;100.00;102654.66;5073016;28;20074;-90
2023/05/25 03:42:33;;;;;;;16.65;10.23;;;;;;;6.48;100.00;102648.66;5072904;28;20029;-91
2023/05/25 03:44:59;;;;;;;14.18;10.45;;;;;;;6.52;100.00;102647.75;5072564;28;20025;-90
2023/05/25 03:47:24;;;;;;;16.67;9.98;;;;;;;6.58;100.00;102650.19;5072799;28;20024;-88
2023/05/25 03:49:49;;;;;;;17.20;9.48;;;;;;;6.61;100.00;102657.88;5072606;28;20372;-90
2023/05/25 03:52:15;;;;;;;16.38;9.40;;;;;;;6.67;100.00;102661.19;5072769;28;20392;-91
2023/05/25 03:54:40;;;;;;;19.08;10.40;;;;;;;6.48;100.00;102620.44;5072711;28;20459;-91
2023/05/25 03:57:05;;;;;;;16.02;9.68;;;;;;;6.78;100.00;102662.69;5072947;28;20033;-90
2023/05/25 03:59:31;;;;;;;13.32;9.32;;;;;;;6.75;100.00;102665.31;5072837;28;20040;-91
2023/05/25 04:01:56;;;;;;;16.90;9.68;;;;;;;6.74;100.00;102648.22;5072751;28;20040;-91
2023/05/25 04:04:21;;;;;;;13.27;8.75;;;;;;;6.79;100.00;102650.72;5076690;28;20028;-91
2023/05/25 04:06:47;;;;;;;17.05;9.50;;;;;;;6.83;100.00;102650.63;5076927;28;20043;-89
2023/05/25 04:09:14;;;;;;;15.05;8.38;;;;;;;6.71;100.00;102632.03;5076533;28;20495;-89
2023/05/25 04:11:39;;;;;;;15.95;8.93;;;;;;;6.89;100.00;102645.41;5076559;28;20024;-90
2023/05/25 04:14:04;;;;;;;16.55;8.38;;;;;;;6.93;100.00;102646.19;5076877;28;20031;-90
2023/05/25 04:16:30;;;;;;;14.80;8.65;;;;;;;6.94;100.00;102642.72;5076518;28;20033;-91
2023/05/25 04:18:55;;;;;;;17.52;9.13;;;;;;;7.04;100.00;102640.84;5076110;28;20053;-90
2023/05/25 04:21:21;;;;;;;15.15;9.13;;;;;;;7.18;100.00;102657.69;5076499;28;20029;-90
2023/05/25 04:23:46;;;;;;;14.00;8.02;;;;;;;7.19;100.00;102654.25;5078484;28;20487;-90
2023/05/25 04:26:14;;;;;;;16.70;9.98;;;;;;;7.30;100.00;102656.59;5078451;28;20094;-90
2023/05/25 04:28:39;;;;;;;15.27;8.93;;;;;;;7.41;100.00;102658.94;5059271;28;20044;-89
2023/05/25 04:31:05;;;;;;;13.40;8.40;;;;;;;7.46;100.00;102667.38;5077334;28;20028;-91
2023/05/25 04:33:33;;;;;;;17.05;8.57;;;;;;;7.48;100.00;102660.53;5077356;28;20020;-83
2023/05/25 04:35:59;;;;;;;13.70;7.90;;;;;;;7.49;100.00;102657.06;5076341;28;20111;-91
2023/05/25 04:38:24;;;;;;;19.50;8.98;;;;;;;7.63;100.00;102647.31;5076864;28;20028;-91
2023/05/25 04:40:52;;;;;;;15.63;8.43;;;;;;;7.78;100.00;102655.59;5076602;28;20034;-92
2023/05/25 04:43:19;;;;;;;16.98;8.65;;;;;;;7.97;100.00;102672.31;5076943;28;20036;-92
2023/05/25 04:45:45;;;;;;;14.05;8.35;;;;;;;7.67;100.00;102618.09;5076409;28;20033;-91
2023/05/25 04:48:11;;;;;;;16.00;9.00;;;;;;;7.86;100.00;102630.53;5076290;28;20502;-90
2023/05/25 04:50:39;;;;;;;15.88;8.80;;;;;;;8.03;100.00;102646.44;5058071;28;20028;-91
2023/05/25 04:53:05;;;;;;;14.05;7.90;;;;;;;8.18;100.00;102669.25;5076174;28;20464;-91
2023/05/25 04:55:30;;;;;;;16.88;8.63;;;;;;;8.25;100.00;102675.91;5076241;28;20029;-84
2023/05/25 04:57:55;;;;;;;17.63;8.77;;;;;;;8.33;100.00;102681.72;5075821;28;20025;-91
2023/05/25 05:00:21;;;;;;;16.05;8.77;;;;;;;8.40;100.00;102679.91;5076038;28;20052;-90
2023/05/25 05:02:46;;;;;;;16.58;8.98;;;;;;;8.61;100.00;102689.66;5076584;28;20020;-91
2023/05/25 05:05:12;;;;;;;15.77;9.25;;;;;;;9.60;100.00;102682.69;5075616;28;20028;-91
2023/05/25 05:07:37;;;;;;;13.50;7.57;;;;;;;11.19;100.00;102688.72;5075272;28;20040;-73
2023/05/25 05:10:03;;;;;;;13.93;7.05;;;;;;;12.58;92.02;102686.78;5075566;28;20426;-73
2023/05/25 05:12:28;;;;;;;10.93;6.47;;;;;;;13.93;84.49;102679.06;5075399;28;20037;-76
2023/05/25 05:14:54;;;;;;;9.18;5.22;;;;;;;14.94;78.60;102687.06;5075062;28;20021;-73
2023/05/25 05:17:20;;;;;;;13.85;6.20;;;;;;;15.77;72.72;102684.34;5075200;28;20055;-72
2023/05/25 05:19:45;;;;;;;10.88;5.80;;;;;;;16.27;67.98;102683.25;5074778;28;20928;-73
2023/05/25 05:22:14;;;;;;;11.00;5.15;;;;;;;16.81;66.97;102691.44;5075245;28;20028;-73
2023/05/25 05:24:39;;;;;;;9.88;5.03;;;;;;;17.25;63.73;102656.56;5074920;28;20024;-71
2023/05/25 05:27:05;;;;;;;12.00;4.97;;;;;;;17.74;61.32;102684.84;5075020;28;20035;-72
2023/05/25 05:29:30;;;;;;;9.30;5.10;;;;;;;18.03;59.99;102690.81;5074963;28;20032;-70
2023/05/25 05:31:56;;;;;;;14.60;5.38;;;;;;;18.38;58.91;102700.72;5074923;28;20426;-71
2023/05/25 05:34:21;;;;;;;12.85;4.90;;;;;;;18.38;58.55;102704.19;5074761;28;20425;-70
2023/05/25 05:36:46;;;;;;;9.15;4.88;;;;;;;18.48;57.40;102702.63;5074434;28;20035;-71
2023/05/25 05:39:12;;;;;;;8.45;4.50;;;;;;;18.79;56.42;102704.09;5074841;28;20028;-70
2023/05/25 05:41:37;;;;;;;11.90;4.93;;;;;;;19.54;54.48;102716.34;5075031;28;20028;-81
2023/05/25 05:44:03;;;;;;;11.40;4.85;;;;;;;19.81;53.39;102714.41;5074861;28;20020;-87
2023/05/25 05:46:28;;;;;;;10.73;4.78;;;;;;;20.31;52.58;102708.06;5074577;28;20115;-90
2023/05/25 05:48:53;;;;;;;12.05;4.70;;;;;;;21.03;50.26;102721.00;5056459;28;20467;-89
2023/05/25 05:51:19;;;;;;;12.07;5.15;;;;;;;21.40;48.75;102713.75;5074226;28;20463;-88
2023/05/25 05:53:44;;;;;;;10.25;5.10;;;;;;;21.70;48.31;102717.50;5074613;28;20537;-87
2023/05/25 05:56:17;;;;;;;10.88;4.45;;;;;;;21.76;49.63;102712.59;5074572;28;20051;-88
2023/05/25 05:58:42;;;;;;;10.07;4.28;;;;;;;21.71;46.55;102714.75;5074633;28;20104;-89
2023/05/25 06:01:07;;;;;;;11.95;5.13;;;;;;;21.88;47.36;102718.66;5056642;28;20105;-88
2023/05/25 06:03:33;;;;;;;9.95;4.40;;;;;;;22.14;45.88;102727.09;5074680;28;20025;-85
2023/05/25 06:05:58;;;;;;;10.65;4.50;;;;;;;21.95;44.36;102721.63;5074286;28;20459;-89
2023/05/25 06:08:24;;;;;;;8.52;4.38;;;;;;;21.87;45.76;102737.19;5074277;28;20029;-89
2023/05/25 06:10:50;;;;;;;8.82;4.25;;;;;;;21.82;45.72;102716.50;5074107;28;20556;-88
2023/05/25 06:13:16;;;;;;;10.00;4.60;;;;;;;22.22;46.04;102724.69;5075587;28;20096;-81
2023/05/25 06:15:41;;;;;;;9.60;4.72;;;;;;;22.55;43.84;102736.81;5074505;28;20025;-84
2023/05/25 06:18:07;;;;;;;10.57;4.72;;;;;;;22.76;43.53;102733.34;5073845;28;20099;-88
2023/05/25 06:20:32;;;;;;;10.57;4.65;;;;;;;23.01;43.20;102726.81;5073649;28;20021;-87
2023/05/25 06:22:57;;;;;;;9.60;4.53;;;;;;;23.38;42.96;102727.13;5073848;28;20507;-82
2023/05/25 06:25:23;;;;;;;12.45;4.70;;;;;;;23.44;41.89;102737.13;5073209;28;20495;-74
2023/05/25 06:27:48;;;;;;;11.73;4.50;;;;;;;23.36;41.27;102729.88;5073936;28;20379;-81
2023/05/25 06:30:13;;;;;;;11.48;4.50;;;;;;;23.00;42.39;102739.16;5073793;28;20388;-76
2023/05/25 06:32:39;;;;;;;9.80;4.22;;;;;;;22.89;42.75;102741.88;5068864;28;20032;-81
2023/05/25 06:35:04;;;;;;;11.27;4.78;;;;;;;23.09;41.48;102741.00;5054219;28;20017;-76
2023/05/25 06:37:36;;;;;;;8.60;4.53;;;;;;;22.78;41.75;102732.22;5053798;28;20033;-68
2023/05/25 06:40:02;;;;;;;11.07;4.72;;;;;;;22.88;42.01;102721.78;5053732;28;20377;-71
2023/05/25 06:42:28;;;;;;;8.60;4.47;;;;;;;23.30;41.34;102737.50;5053548;28;20108;-71
2023/05/25 06:44:53;;;;;;;10.85;4.63;;;;;;;23.17;41.34;102750.91;5053361;28;20444;-70
2023/05/25 06:47:18;;;;;;;8.60;4.50;;;;;;;23.71;41.96;102755.00;5053373;28;20406;-69
2023/05/25 06:49:44;;;;;;;10.65;4.65;;;;;;;24.20;40.80;102755.88;5053456;28;20025;-72
2023/05/25 06:52:09;;;;;;;9.27;5.22;;;;;;;24.40;38.63;102743.53;5052912;28;20029;-71
2023/05/25 06:54:34;;;;;;;10.65;4.50;;;;;;;24.53;39.04;102752.81;5053222;28;20071;-74
2023/05/25 06:57:00;;;;;;;10.75;4.20;;;;;;;24.48;38.74;102751.56;5053258;28;20032;-71
2023/05/25 06:59:25;;;;;;;8.40;3.63;;;;;;;23.95;38.50;102749.34;5053058;28;20116;-72
2023/05/25 07:01:51;;;;;;;9.23;4.07;;;;;;;22.54;40.83;102739.59;5053229;28;20036;-79
2023/05/25 07:04:16;;;;;;;11.88;4.05;;;;;;;21.09;44.46;102751.22;5052998;28;20028;-73
2023/05/25 07:06:42;;;;;;;13.07;4.45;;;;;;;20.17;47.12;102770.38;5052606;28;20476;-72
2023/05/25 07:09:07;;;;;;;9.50;4.53;;;;;;;19.63;49.21;102768.97;5053170;28;20021;-72
2023/05/25 07:11:32;;;;;;;10.82;4.72;;;;;;;18.87;50.71;102768.97;5034838;28;20033;-75
2023/05/25 07:13:58;;;;;;;10.02;4.93;;;;;;;19.28;49.96;102765.34;5052856;28;20033;-75
2023/05/25 07:16:24;;;;;;;10.27;4.85;;;;;;;20.27;49.00;102766.16;5052972;28;20056;-71
2023/05/25 07:18:50;;;;;;;11.68;5.20;;;;;;;20.51;48.06;102772.22;5061686;28;20505;-71
2023/05/25 07:21:16;;;;;;;10.40;4.75;;;;;;;19.92;47.75;102771.31;5072710;28;20025;-74
2023/05/25 07:23:41;;;;;;;10.00;4.82;;;;;;;19.03;50.77;102750.47;5072692;28;20381;-72
2023/05/25 07:26:07;;;;;;;12.30;5.40;;;;;;;18.86;52.36;102769.94;5073083;28;20017;-76
2023/05/25 07:28:32;;;;;;;11.50;5.28;;;;;;;18.58;52.90;102753.44;5072817;28;20472;-72
2023/05/25 07:30:57;;;;;;;10.52;4.93;;;;;;;19.19;52.50;102772.88;5072863;28;20035;-81
2023/05/25 07:33:23;;;;;;;10.18;5.03;;;;;;;19.23;51.13;102767.44;5072426;28;20024;-74
2023/05/25 07:35:50;;;;;;;11.30;5.05;;;;;;;18.27;52.41;102766.81;5072363;28;20036;-80
2023/05/25 07:38:15;;;;;;;12.43;5.47;;;;;;;17.61;56.03;102780.59;5071052;28;20125;-78
2023/05/25 07:40:41;;;;;;;13.63;5.38;;;;;;;17.31;56.86;102781.53;5072471;28;20074;-70
2023/05/25 07:43:07;;;;;;;14.48;6.30;;;;;;;16.83;57.00;102782.66;5072412;28;20028;-76
2023/05/25 07:45:33;;;;;;;13.57;5.13;;;;;;;16.48;59.15;102779.44;5072247;28;20028;-76
2023/05/25 07:47:58;;;;;;;11.93;5.35;;;;;;;16.43;62.52;102786.69;5072314;28;20037;-83
2023/05/25 07:50:23;;;;;;;12.93;5.35;;;;;;;16.15;61.82;102782.19;5054195;28;20035;-92
2023/05/25 07:52:49;;;;;;;12.50;4.80;;;;;;;15.94;61.34;102774.63;5072415;28;20048;-85
2023/05/25 07:55:14;;;;;;;12.48;5.00;;;;;;;15.89;62.90;102779.22;5073023;28;20815;-87
2023/05/25 07:57:39;;;;;;;11.52;5.05;;;;;;;15.94;63.26;102789.41;5071934;28;20017;-82
2023/05/25 08:00:07;;;;;;;11.90;4.97;;;;;;;15.85;62.74;102769.06;5073626;28;20025;-82
2023/05/25 08:02:32;;;;;;;12.27;5.40;;;;;;;15.93;61.80;102772.94;5073676;28;20082;-84
2023/05/25 08:05:02;;;;;;;11.48;5.07;;;;;;;16.39;62.21;102788.63;5072882;28;20028;-86
2023/05/25 08:07:28;;;;;;;11.98;5.38;;;;;;;16.49;60.30;102749.81;5072105;28;20395;-86
2023/05/25 08:09:53;;;;;;;10.45;4.85;;;;;;;16.52;59.48;102780.97;5072184;28;20028;-87
2023/05/25 08:12:18;;;;;;;14.45;5.35;;;;;;;16.53;59.71;102793.91;5072279;28;20025;-87
2023/05/25 08:14:44;;;;;;;11.48;4.95;;;;;;;16.62;59.68;102788.16;5072380;28;20020;-86
2023/05/25 08:17:09;;;;;;;11.70;5.05;;;;;;;16.59;59.09;102777.06;5072488;28;20028;-78
2023/05/25 08:19:34;;;;;;;12.43;4.93;;;;;;;16.73;59.26;102805.84;5072211;28;20051;-89
2023/05/25 08:22:00;;;;;;;9.38;4.50;;;;;;;16.48;58.31;102782.03;5072210;28;20552;-83
2023/05/25 08:24:25;;;;;;;11.93;4.90;;;;;;;16.25;60.34;102807.66;5072271;28;20027;-91
2023/05/25 08:26:50;;;;;;;11.50;4.68;;;;;;;16.01;60.74;102768.13;5054092;28;20744;-90
2023/05/25 08:29:17;;;;;;;12.30;4.93;;;;;;;16.35;59.60;102802.75;5072941;28;20078;-92
2023/05/25 08:31:48;;;;;;;12.98;5.30;;;;;;;16.72;59.82;102812.00;5054451;28;20067;-85
2023/05/25 08:34:13;;;;;;;12.82;4.85;;;;;;;16.98;59.51;102789.59;5072105;28;20025;-79
2023/05/25 08:36:39;;;;;;;10.68;4.43;;;;;;;17.40;57.24;102803.63;5072637;28;20040;-79
2023/05/25 08:39:04;;;;;;;13.73;4.40;;;;;;;17.42;56.45;102799.16;5071949;28;20388;-79
2023/05/25 08:41:31;;;;;;;13.38;4.55;;;;;;;17.43;56.05;102800.84;5072467;28;20486;-85
2023/05/25 08:43:56;;;;;;;11.27;4.28;;;;;;;17.64;56.21;102794.28;5072894;28;20031;-82
2023/05/25 08:46:31;;;;;;;11.75;4.22;;;;;;;17.78;58.14;102809.16;5072445;28;20024;-91
2023/05/25 08:49:03;;;;;;;9.23;4.22;;;;;;;17.47;55.59;102804.94;5073738;28;20109;-86
2023/05/25 08:51:35;;;;;;;12.82;5.20;;;;;;;17.18;57.41;102811.91;5075764;28;20170;-84
2023/05/25 08:54:06;;;;;;;9.75;4.25;;;;;;;16.88;57.55;102799.72;5075464;28;20028;-84
2023/05/25 08:56:36;;;;;;;11.20;3.90;;;;;;;16.99;57.64;102806.09;5075490;28;20487;-79
2023/05/25 08:59:04;;;;;;;9.43;4.00;;;;;;;17.11;57.59;102813.22;5075704;28;20354;-91
2023/05/25 09:01:37;;;;;;;10.40;4.25;;;;;;;17.07;58.28;102806.47;5075561;28;20070;-89
2023/05/25 09:04:03;;;;;;;12.50;4.15;;;;;;;17.06;59.53;102802.19;5077184;28;20464;-83
2023/05/25 09:06:29;;;;;;;10.57;4.25;;;;;;;17.08;59.99;102813.38;5075245;28;20017;-81
2023/05/25 09:08:55;;;;;;;11.70;4.07;;;;;;;16.71;57.51;102785.97;5075317;28;20060;-86
2023/05/25 09:11:21;;;;;;;12.95;4.05;;;;;;;16.71;58.79;102802.47;5075240;28;20032;-83
2023/05/25 09:13:46;;;;;;;10.10;3.50;;;;;;;16.83;58.68;102822.66;5075479;28;20028;-84
2023/05/25 09:16:12;;;;;;;13.57;4.43;;;;;;;16.67;58.21;102824.41;5075016;28;20373;-85
2023/05/25 09:18:38;;;;;;;12.18;3.92;;;;;;;16.45;57.99;102811.75;5076211;28;20052;-81
2023/05/25 09:21:04;;;;;;;9.63;4.13;;;;;;;16.38;58.68;102833.03;5075470;28;20367;-83
2023/05/25 09:23:30;;;;;;;12.00;4.28;;;;;;;16.27;60.25;102811.00;5074752;28;20097;-90
2023/05/25 09:25:57;;;;;;;11.48;4.70;;;;;;;16.33;60.70;102828.94;5075058;28;20383;-87
2023/05/25 09:28:22;;;;;;;13.60;5.30;;;;;;;16.22;61.79;102830.41;5074873;28;20032;-92
2023/05/25 09:30:47;;;;;;;13.02;4.78;;;;;;;16.10;61.33;102833.72;5073858;28;20031;-91
2023/05/25 09:33:16;;;;;;;12.45;4.75;;;;;;;15.97;61.99;102805.72;5076174;28;20422;-81
2023/05/25 09:35:43;;;;;;;12.38;4.22;;;;;;;16.23;61.30;102825.16;5075207;28;20141;-85
2023/05/25 09:38:08;;;;;;;10.80;4.50;;;;;;;16.27;60.41;102831.03;5075371;28;20058;-90
2023/05/25 09:40:34;;;;;;;10.73;4.18;;;;;;;16.21;60.95;102807.88;5075468;28;20476;-83
2023/05/25 09:43:01;;;;;;;13.32;4.30;;;;;;;16.37;59.85;102832.19;5074756;28;20018;-87
2023/05/25 09:45:27;;;;;;;10.70;3.95;;;;;;;16.33;59.19;102825.47;5074764;28;20028;-82
2023/05/25 09:47:56;;;;;;;9.98;3.83;;;;;;;16.33;60.67;102834.16;5074707;28;20028;-86
2023/05/25 09:50:21;;;;;;;9.95;3.55;;;;;;;16.29;58.42;102827.41;5074685;28;20028;-89
2023/05/25 09:52:47;;;;;;;11.68;3.75;;;;;;;16.34;59.19;102830.59;5075085;28;20028;-91
2023/05/25 09:55:13;;;;;;;8.30;3.55;;;;;;;16.59;57.88;102832.66;5074696;28;20032;-91
2023/05/25 09:57:39;;;;;;;10.35;3.45;;;;;;;16.76;56.27;102820.47;5075424;28;20426;-92
2023/05/25 10:00:05;;;;;;;13.73;3.80;;;;;;;17.07;57.40;102836.03;5073801;28;20025;-91
2023/05/25 10:02:31;;;;;;;11.10;3.58;;;;;;;17.05;55.07;102826.63;5074619;28;20017;-92
2023/05/25 10:04:56;;;;;;;10.82;3.60;;;;;;;17.11;55.38;102819.28;5075010;28;20487;-82
2023/05/25 10:07:22;;;;;;;8.68;3.45;;;;;;;17.42;54.79;102831.34;5074327;28;20154;-75
2023/05/25 10:09:52;;;;;;;10.70;3.40;;;;;;;17.44;52.90;102821.63;5074491;28;20024;-78
2023/05/25 10:12:19;;;;;;;10.48;3.85;;;;;;;17.69;54.35;102834.06;5074474;28;20499;-78
2023/05/25 10:14:47;;;;;;;10.18;3.38;;;;;;;17.73;52.04;102825.13;5074563;28;20036;-79
2023/05/25 10:17:17;;;;;;;10.10;3.83;;;;;;;18.06;52.99;102835.25;5074256;28;20119;-75
2023/05/25 10:19:55;;;;;;;8.63;3.13;;;;;;;18.41;51.59;102834.78;5074049;28;20488;-84
2023/05/25 10:22:24;;;;;;;10.35;3.92;;;;;;;18.67;50.35;102827.88;5074167;28;20391;-86
2023/05/25 10:25:07;;;;;;;11.82;3.50;;;;;;;18.79;51.45;102813.19;5074221;28;20074;-77
2023/05/25 10:27:43;;;;;;;10.60;3.67;;;;;;;18.64;50.38;102828.06;5073779;28;20075;-76
2023/05/25 10:30:09;;;;;;;8.70;3.33;;;;;;;18.45;51.42;102833.66;5073917;28;20025;-79
2023/05/25 10:32:37;;;;;;;9.68;3.95;;;;;;;18.31;50.85;102828.47;5073528;28;20028;-77
2023/05/25 10:35:05;;;;;;;8.00;3.35;;;;;;;18.36;50.84;102844.69;5055419;28;20198;-76
2023/05/25 10:37:33;;;;;;;9.57;3.63;;;;;;;17.96;51.20;102825.47;5072863;28;20028;-72
2023/05/25 10:40:00;;;;;;;8.70;3.30;;;;;;;18.24;50.86;102843.72;5073939;28;20028;-74
2023/05/25 10:42:29;;;;;;;10.07;3.88;;;;;;;18.34;51.19;102836.13;5073464;28;20107;-78
2023/05/25 10:44:55;;;;;;;10.65;3.33;;;;;;;18.38;50.87;102842.81;5073150;28;20028;-77
2023/05/25 10:47:21;;;;;;;8.73;3.50;;;;;;;18.12;50.70;102835.81;5072955;28;20028;-76
2023/05/25 10:50:05;;;;;;;10.63;3.72;;;;;;;17.94;52.98;102845.63;5073249;28;20032;-82
2023/05/25 10:52:31;;;;;;;10.02;3.80;;;;;;;17.98;52.19;102842.72;5073228;28;20475;-81
2023/05/25 10:55:00;;;;;;;8.77;3.45;;;;;;;18.49;51.48;102831.69;5073219;28;20384;-89
2023/05/25 10:57:26;;;;;;;12.10;3.90;;;;;;;18.80;50.02;102822.72;5073181;28;20138;-88
2023/05/25 10:59:58;;;;;;;10.25;4.15;;;;;;;19.05;51.12;102829.75;5072957;28;20024;-90
2023/05/25 11:02:27;;;;;;;13.80;4.03;;;;;;;19.13;50.78;102830.06;5054768;28;20121;-78
2023/05/25 11:05:33;;;;;;;9.40;4.05;;;;;;;19.11;50.31;102821.50;5073174;28;20376;-92
2023/05/25 11:08:02;;;;;;;11.20;4.25;;;;;;;18.75;50.16;102833.47;5072507;28;20541;-92
2023/05/25 11:10:48;;;;;;;8.02;3.75;;;;;;;18.61;51.26;102831.72;5072735;28;20029;-88
2023/05/25 11:13:32;;;;;;;9.93;3.72;;;;;;;18.48;51.18;102824.75;5072802;28;20025;-91
2023/05/25 11:16:19;;;;;;;10.05;4.10;;;;;;;18.28;52.65;102829.50;5073071;28;20032;-90
2023/05/25 11:18:57;;;;;;;9.25;3.97;;;;;;;18.18;52.40;102841.47;5072766;28;20044;-89